Time;durP1;ratioP1;P1;durP2;ratioP2;P2;SDS_P1;SDS_P2;PMS_P1;PMS_P2;Temp;Humidity;BMP_temperature;BMP_pressure;BME280_temperature;BME280_humidity;BME280_pressure;Samples;Min_cycle;Max_cycle;Signal;HPM_P1;HPM_P2
2023/11/27 00:00:24;;;;;;;23.30;13.35;;;1.20;99.90;;;;;;4957100;28;20021;-47
2023/11/27 00:02:50;;;;;;;26.10;13.15;;;1.20;99.90;;;;;;4959913;28;20071;-49
2023/11/27 00:05:16;;;;;;;24.77;12.85;;;1.20;99.90;;;;;;4952791;28;20787;-50
2023/11/27 00:07:42;;;;;;;26.08;13.13;;;1.20;99.90;;;;;;5014349;28;20044;-48
2023/11/27 00:10:07;;;;;;;25.15;12.88;;;1.20;99.90;;;;;;4948657;28;20064;-51
2023/11/27 00:12:33;;;;;;;22.02;12.48;;;1.20;99.90;;;;;;4950906;28;20108;-59
2023/11/27 00:14:58;;;;;;;25.00;12.70;;;1.20;99.90;;;;;;4960083;28;20032;-53
2023/11/27 00:17:24;;;;;;;21.23;12.90;;;1.30;99.90;;;;;;4950532;28;20498;-51
2023/11/27 00:19:50;;;;;;;22.52;13.27;;;1.20;99.90;;;;;;5015294;28;20026;-47
2023/11/27 00:22:15;;;;;;;22.60;12.57;;;1.30;99.90;;;;;;4953999;28;20431;-48
2023/11/27 00:24:41;;;;;;;19.20;11.68;;;1.30;99.90;;;;;;4962974;28;20032;-52
2023/11/27 00:27:06;;;;;;;22.77;12.80;;;1.30;99.90;;;;;;4966169;28;20033;-51
2023/11/27 00:29:32;;;;;;;21.15;11.98;;;1.30;99.90;;;;;;4944694;28;20413;-51
2023/11/27 00:31:58;;;;;;;22.33;13.23;;;1.30;99.90;;;;;;4975809;28;20025;-60
2023/11/27 00:34:23;;;;;;;22.88;12.25;;;1.20;99.90;;;;;;4962307;28;20120;-48
2023/11/27 00:36:50;;;;;;;19.67;10.43;;;1.20;99.90;;;;;;4944022;28;20037;-50
2023/11/27 00:39:15;;;;;;;22.80;12.25;;;1.20;99.90;;;;;;4959582;28;20389;-50
2023/11/27 00:41:41;;;;;;;20.55;12.05;;;1.20;99.90;;;;;;4938786;28;20032;-51
2023/11/27 00:44:06;;;;;;;19.77;11.30;;;1.20;99.90;;;;;;4995550;28;20038;-49
2023/11/27 00:46:33;;;;;;;22.95;13.10;;;1.30;99.90;;;;;;5015104;28;20028;-50
2023/11/27 00:48:58;;;;;;;19.05;11.60;;;1.30;99.90;;;;;;4983714;28;20037;-52
2023/11/27 00:51:24;;;;;;;16.30;10.18;;;1.30;99.90;;;;;;5006106;28;20386;-51
2023/11/27 00:53:49;;;;;;;20.27;11.18;;;1.20;99.90;;;;;;4999701;28;20045;-61
2023/11/27 00:56:15;;;;;;;20.58;12.05;;;1.20;99.90;;;;;;4971300;28;20537;-49
2023/11/27 00:58:40;;;;;;;17.88;10.52;;;1.30;99.90;;;;;;4971061;28;20034;-49
2023/11/27 01:01:06;;;;;;;15.05;10.52;;;1.30;99.90;;;;;;4984083;28;20026;-49
2023/11/27 01:03:32;;;;;;;17.20;10.27;;;1.30;99.90;;;;;;5000757;28;20032;-49
2023/11/27 01:05:58;;;;;;;20.58;11.25;;;1.30;99.90;;;;;;4983499;28;20581;-50
2023/11/27 01:08:24;;;;;;;19.15;11.65;;;1.30;99.90;;;;;;4997970;28;20033;-51
2023/11/27 01:10:50;;;;;;;15.60;9.55;;;1.30;99.90;;;;;;4980969;28;20033;-49
2023/11/27 01:13:16;;;;;;;16.80;10.13;;;1.30;99.90;;;;;;4971519;28;20049;-55
2023/11/27 01:15:42;;;;;;;17.80;10.80;;;1.30;99.90;;;;;;4954645;28;20121;-58
2023/11/27 01:18:07;;;;;;;15.88;11.05;;;1.30;99.90;;;;;;5009900;28;20096;-52
2023/11/27 01:20:33;;;;;;;14.43;9.88;;;1.30;99.90;;;;;;4992890;28;20026;-48
2023/11/27 01:22:59;;;;;;;18.15;10.40;;;1.30;99.90;;;;;;4972704;28;20013;-50
2023/11/27 01:25:24;;;;;;;20.58;10.80;;;1.30;99.90;;;;;;4967712;28;20040;-51
2023/11/27 01:27:50;;;;;;;17.60;10.52;;;1.40;99.90;;;;;;4971096;28;20045;-54
2023/11/27 01:30:19;;;;;;;16.27;10.48;;;1.30;99.90;;;;;;5003207;28;20033;-53
2023/11/27 01:32:45;;;;;;;17.23;10.25;;;1.40;99.90;;;;;;4976222;28;20401;-53
2023/11/27 01:35:11;;;;;;;16.00;9.73;;;1.40;99.90;;;;;;4958830;28;20037;-51
2023/11/27 01:37:37;;;;;;;16.50;10.98;;;1.40;99.90;;;;;;4989211;28;20034;-54
2023/11/27 01:40:03;;;;;;;16.40;10.15;;;1.40;99.90;;;;;;4955706;28;20065;-50
2023/11/27 01:42:28;;;;;;;16.33;9.57;;;1.40;99.90;;;;;;4994611;28;20097;-52
2023/11/27 01:44:54;;;;;;;17.65;10.68;;;1.40;99.90;;;;;;4970209;28;20026;-59
2023/11/27 01:47:20;;;;;;;18.25;9.35;;;1.40;99.90;;;;;;4956326;28;20122;-49
2023/11/27 01:49:47;;;;;;;16.63;9.60;;;1.40;99.90;;;;;;4937121;28;20021;-54
2023/11/27 01:52:14;;;;;;;16.65;10.55;;;1.40;99.90;;;;;;4948492;28;20069;-59
2023/11/27 01:54:41;;;;;;;18.08;9.88;;;1.40;99.90;;;;;;4953884;28;20137;-59
2023/11/27 01:57:15;;;;;;;19.15;11.20;;;1.40;99.90;;;;;;4963457;28;20044;-53
2023/11/27 01:59:42;;;;;;;19.90;10.55;;;1.40;99.90;;;;;;5023694;28;20025;-56
2023/11/27 02:02:08;;;;;;;20.88;11.18;;;1.40;99.90;;;;;;4945968;28;20025;-55
2023/11/27 02:04:34;;;;;;;16.77;11.20;;;1.40;99.90;;;;;;4936335;28;20385;-54
2023/11/27 02:06:59;;;;;;;18.85;11.98;;;1.40;99.90;;;;;;4938582;28;21098;-52
2023/11/27 02:09:25;;;;;;;17.33;10.52;;;1.50;99.90;;;;;;4984785;28;20029;-52
2023/11/27 02:11:50;;;;;;;19.75;11.20;;;1.40;99.90;;;;;;5024571;28;20435;-53
2023/11/27 02:14:17;;;;;;;16.88;10.98;;;1.40;99.90;;;;;;4940387;28;20108;-49
2023/11/27 02:16:46;;;;;;;17.15;10.98;;;1.40;99.90;;;;;;4968451;28;20026;-51
2023/11/27 02:19:15;;;;;;;19.58;11.27;;;1.40;99.90;;;;;;5015108;28;20564;-48
2023/11/27 02:21:43;;;;;;;20.63;12.07;;;1.40;99.90;;;;;;4997314;28;20032;-59
2023/11/27 02:24:09;;;;;;;16.48;9.82;;;1.40;99.90;;;;;;5014162;28;21152;-51
2023/11/27 02:26:34;;;;;;;17.00;11.27;;;1.40;99.90;;;;;;5028443;28;20036;-54
2023/11/27 02:29:00;;;;;;;16.92;11.10;;;1.40;99.90;;;;;;5006830;28;20025;-47
2023/11/27 02:31:25;;;;;;;16.55;10.65;;;1.40;99.90;;;;;;5016817;28;20052;-48
2023/11/27 02:33:51;;;;;;;20.45;11.38;;;1.40;99.90;;;;;;5011639;28;20516;-53
2023/11/27 02:36:17;;;;;;;15.50;10.20;;;1.40;99.90;;;;;;5015201;28;20037;-51
2023/11/27 02:38:43;;;;;;;16.00;9.85;;;1.30;99.90;;;;;;5019194;28;20075;-47
2023/11/27 02:41:08;;;;;;;18.20;10.43;;;1.40;99.90;;;;;;4999580;28;20029;-48
2023/11/27 02:43:34;;;;;;;15.98;10.27;;;1.40;99.90;;;;;;5008906;28;20029;-51
2023/11/27 02:46:00;;;;;;;15.35;10.38;;;1.30;99.90;;;;;;5015895;28;20104;-51
2023/11/27 02:48:26;;;;;;;14.75;9.73;;;1.30;99.90;;;;;;5015466;28;20113;-49
2023/11/27 02:50:51;;;;;;;14.27;9.75;;;1.30;99.90;;;;;;5022571;28;20037;-53
2023/11/27 02:53:18;;;;;;;15.55;10.18;;;1.40;99.90;;;;;;5016569;28;20022;-50
2023/11/27 02:55:44;;;;;;;15.55;9.52;;;1.30;99.90;;;;;;5019941;28;20029;-52
2023/11/27 02:58:10;;;;;;;15.35;9.32;;;1.40;99.90;;;;;;5008766;28;20481;-50
2023/11/27 03:00:38;;;;;;;14.35;8.70;;;1.30;99.90;;;;;;5012686;28;20105;-50
2023/11/27 03:03:04;;;;;;;15.40;10.18;;;1.30;99.90;;;;;;4994135;28;20276;-48
2023/11/27 03:05:30;;;;;;;14.93;10.00;;;1.40;99.90;;;;;;5004442;28;20045;-50
2023/11/27 03:07:56;;;;;;;15.80;10.05;;;1.30;99.90;;;;;;4988356;28;20049;-47
2023/11/27 03:10:22;;;;;;;18.45;10.65;;;1.40;99.90;;;;;;4983780;28;20037;-48
2023/11/27 03:12:48;;;;;;;13.75;8.90;;;1.40;99.90;;;;;;4987354;28;20457;-59
2023/11/27 03:15:15;;;;;;;16.95;10.13;;;1.40;99.90;;;;;;5016913;28;20041;-48
2023/11/27 03:17:41;;;;;;;14.15;9.25;;;1.30;99.90;;;;;;5011372;28;20026;-50
2023/11/27 03:20:08;;;;;;;13.85;9.63;;;1.30;99.90;;;;;;4999494;28;20032;-48
2023/11/27 03:22:34;;;;;;;15.63;9.15;;;1.30;99.90;;;;;;5004458;28;20660;-52
2023/11/27 03:24:59;;;;;;;14.63;10.45;;;1.30;99.90;;;;;;4999020;28;20029;-48
2023/11/27 03:27:25;;;;;;;15.95;9.73;;;1.30;99.90;;;;;;5016086;28;20092;-48
2023/11/27 03:29:51;;;;;;;16.33;9.73;;;1.30;99.90;;;;;;4995640;28;20029;-48
2023/11/27 03:32:17;;;;;;;15.40;9.48;;;1.30;99.90;;;;;;5003690;28;20032;-49
2023/11/27 03:34:43;;;;;;;16.05;9.50;;;1.30;99.90;;;;;;4995931;28;20032;-49
2023/11/27 03:37:09;;;;;;;16.10;8.63;;;1.30;99.90;;;;;;5017431;28;20706;-49
2023/11/27 03:39:36;;;;;;;14.52;9.48;;;1.30;99.90;;;;;;5013745;28;20056;-49
2023/11/27 03:42:01;;;;;;;14.05;9.43;;;1.30;99.90;;;;;;5012179;28;20477;-55
2023/11/27 03:44:27;;;;;;;16.10;10.07;;;1.30;99.90;;;;;;5023839;28;20037;-47
2023/11/27 03:46:52;;;;;;;12.32;8.50;;;1.30;99.90;;;;;;5009780;28;20513;-50
2023/11/27 03:49:18;;;;;;;12.25;8.15;;;1.30;99.90;;;;;;4994426;28;20119;-50
2023/11/27 03:51:43;;;;;;;10.60;8.15;;;1.30;99.90;;;;;;5006416;28;20033;-47
2023/11/27 03:54:11;;;;;;;13.18;8.90;;;1.30;99.90;;;;;;4998322;28;20044;-47
2023/11/27 03:56:37;;;;;;;11.63;7.70;;;1.20;99.90;;;;;;5027714;28;20109;-50
2023/11/27 03:59:03;;;;;;;11.88;7.75;;;1.20;99.90;;;;;;5010003;28;20037;-50
2023/11/27 04:01:28;;;;;;;11.95;8.00;;;1.30;99.90;;;;;;5014555;28;20033;-48
2023/11/27 04:03:54;;;;;;;11.45;7.75;;;1.30;99.90;;;;;;5010421;22;20068;-85
2023/11/27 04:06:22;;;;;;;11.38;7.60;;;1.30;99.90;;;;;;4975132;28;21291;-85
2023/11/27 04:08:48;;;;;;;12.68;7.78;;;1.20;99.90;;;;;;5009794;28;20045;-85
2023/11/27 04:11:14;;;;;;;12.25;7.40;;;1.20;99.90;;;;;;5001779;28;20030;-85
2023/11/27 04:13:40;;;;;;;9.52;6.78;;;1.20;99.90;;;;;;5008191;28;20041;-87
2023/11/27 04:16:06;;;;;;;11.85;7.38;;;1.20;99.90;;;;;;5010513;28;20037;-85
2023/11/27 04:18:32;;;;;;;13.77;8.02;;;1.30;99.90;;;;;;5013279;28;20044;-85
2023/11/27 04:20:58;;;;;;;10.43;6.07;;;1.20;99.90;;;;;;4997856;28;20080;-85
2023/11/27 04:23:23;;;;;;;10.07;6.28;;;1.20;99.90;;;;;;5003502;28;20457;-85
2023/11/27 04:25:49;;;;;;;14.68;7.57;;;1.20;99.90;;;;;;5003617;28;20029;-86
2023/11/27 04:28:15;;;;;;;12.05;7.53;;;1.20;99.90;;;;;;5013237;28;20030;-85
2023/11/27 04:30:40;;;;;;;11.63;6.35;;;1.20;99.90;;;;;;5016418;28;20561;-85
2023/11/27 04:33:06;;;;;;;10.38;6.63;;;1.20;99.90;;;;;;5018078;28;20036;-85
2023/11/27 04:35:31;;;;;;;12.23;7.03;;;1.20;99.90;;;;;;5005157;28;20092;-85
2023/11/27 04:37:57;;;;;;;9.52;6.55;;;1.20;99.90;;;;;;5002374;28;21106;-85
2023/11/27 04:40:22;;;;;;;10.70;6.30;;;1.20;99.90;;;;;;4998950;28;20033;-85
2023/11/27 04:42:48;;;;;;;10.48;6.65;;;1.20;99.90;;;;;;5007440;28;20030;-86
2023/11/27 04:45:14;;;;;;;10.32;6.38;;;1.30;99.90;;;;;;5001004;28;21265;-86
2023/11/27 04:47:39;;;;;;;9.93;6.25;;;1.30;99.90;;;;;;5004941;28;20414;-85
2023/11/27 04:50:06;;;;;;;11.43;6.05;;;1.30;99.90;;;;;;5004780;28;20067;-85
2023/11/27 04:52:32;;;;;;;8.45;5.78;;;1.30;99.90;;;;;;5003547;28;20067;-85
2023/11/27 04:54:57;;;;;;;11.82;6.43;;;1.30;99.90;;;;;;5000097;28;20022;-85
2023/11/27 04:57:24;;;;;;;9.55;5.82;;;1.30;99.90;;;;;;5003974;28;20228;-85
2023/11/27 04:59:50;;;;;;;11.88;6.38;;;1.30;99.90;;;;;;4958722;28;20088;-86
2023/11/27 05:02:15;;;;;;;11.05;6.00;;;1.30;99.90;;;;;;4933582;28;20026;-86
2023/11/27 05:04:41;;;;;;;8.07;5.93;;;1.30;99.90;;;;;;4965536;28;20467;-85
2023/11/27 05:07:07;;;;;;;9.35;5.93;;;1.30;99.90;;;;;;4987278;28;20034;-85
2023/11/27 05:09:36;;;;;;;10.13;6.22;;;1.30;99.90;;;;;;4985256;28;20033;-85
2023/11/27 05:12:02;;;;;;;10.02;5.95;;;1.30;99.90;;;;;;4992380;28;20096;-85
2023/11/27 05:14:27;;;;;;;9.65;6.90;;;1.30;99.90;;;;;;4967859;28;20482;-85
2023/11/27 05:16:53;;;;;;;9.52;6.40;;;1.30;99.90;;;;;;4960533;28;20040;-86
2023/11/27 05:19:19;;;;;;;7.32;4.93;;;1.30;99.90;;;;;;4987949;28;21659;-86
2023/11/27 05:21:44;;;;;;;11.20;6.07;;;1.30;99.90;;;;;;4990233;28;20106;-85
2023/11/27 05:24:10;;;;;;;9.60;6.22;;;1.30;99.90;;;;;;4963540;28;20475;-86
2023/11/27 05:26:36;;;;;;;10.68;5.80;;;1.30;99.90;;;;;;4945309;28;20091;-86
2023/11/27 05:29:01;;;;;;;8.95;6.15;;;1.30;99.90;;;;;;4977896;28;21408;-86
2023/11/27 05:31:27;;;;;;;10.23;5.70;;;1.30;99.90;;;;;;4988255;28;20048;-86
2023/11/27 05:33:58;;;;;;;9.30;5.68;;;1.30;99.90;;;;;;4984269;28;20138;-87
2023/11/27 05:36:24;;;;;;;7.88;5.75;;;1.30;99.90;;;;;;4980230;28;20501;-85
2023/11/27 05:38:49;;;;;;;7.63;5.25;;;1.30;99.90;;;;;;4958303;28;20034;-87
2023/11/27 05:41:15;;;;;;;7.40;5.13;;;1.30;99.90;;;;;;4988236;28;20045;-86
2023/11/27 05:43:53;;;;;;;5.97;4.05;;;1.30;99.90;;;;;;4973434;28;20089;-86
2023/11/27 05:46:18;;;;;;;7.65;5.40;;;1.30;99.90;;;;;;4993651;28;21615;-85
2023/11/27 05:48:44;;;;;;;7.60;5.28;;;1.30;99.90;;;;;;4975480;28;20398;-86
2023/11/27 05:51:10;;;;;;;9.23;5.22;;;1.30;99.90;;;;;;4972003;28;20133;-85
2023/11/27 05:53:35;;;;;;;7.15;4.57;;;1.30;99.90;;;;;;4966215;28;20026;-85
2023/11/27 05:56:02;;;;;;;7.22;5.20;;;1.30;99.90;;;;;;4969047;28;20746;-85
2023/11/27 05:58:28;;;;;;;7.85;4.85;;;1.40;99.90;;;;;;4984953;28;20039;-86
2023/11/27 06:01:02;;;;;;;6.18;4.35;;;1.40;99.90;;;;;;4977491;28;20489;-86
2023/11/27 06:03:28;;;;;;;8.00;4.32;;;1.40;99.90;;;;;;4980370;28;20029;-85
2023/11/27 06:05:54;;;;;;;7.70;3.92;;;1.40;99.90;;;;;;4972618;28;20022;-86
2023/11/27 06:08:20;;;;;;;6.05;3.90;;;1.40;99.90;;;;;;4959663;28;20433;-86
2023/11/27 06:10:51;;;;;;;7.30;4.10;;;1.40;99.90;;;;;;4968908;28;20517;-88
2023/11/27 06:13:17;;;;;;;7.75;3.60;;;1.40;99.90;;;;;;4992741;28;21449;-86
2023/11/27 06:15:46;;;;;;;6.45;3.72;;;1.40;99.90;;;;;;5000012;28;20668;-86
2023/11/27 06:18:13;;;;;;;7.10;4.00;;;1.50;99.90;;;;;;4970271;28;20045;-85
2023/11/27 06:20:39;;;;;;;5.43;3.45;;;1.40;99.90;;;;;;4962068;28;20088;-87
2023/11/27 06:23:05;;;;;;;5.22;3.13;;;1.40;99.90;;;;;;4994364;28;20109;-86
2023/11/27 06:25:31;;;;;;;4.47;3.63;;;1.40;99.90;;;;;;4990535;28;20109;-86
2023/11/27 06:28:07;;;;;;;4.47;3.35;;;1.50;99.90;;;;;;4980539;28;20025;-86
2023/11/27 06:30:33;;;;;;;;;;;1.50;99.90;;;;;;5006549;28;20034;-86
2023/11/27 06:32:59;;;;;;;5.80;3.42;;;1.50;99.90;;;;;;4988846;28;19913;-86
2023/11/27 06:35:24;;;;;;;4.63;3.15;;;1.50;99.90;;;;;;4988163;28;20081;-85
2023/11/27 06:37:50;;;;;;;5.40;3.65;;;1.50;99.90;;;;;;4974300;28;20030;-86
2023/11/27 06:40:16;;;;;;;4.38;3.22;;;1.50;99.90;;;;;;4975233;28;20033;-86
2023/11/27 06:42:43;;;;;;;5.18;3.47;;;1.50;99.90;;;;;;4973523;28;20034;-86
2023/11/27 06:45:09;;;;;;;5.72;3.55;;;1.50;99.90;;;;;;4977134;28;20113;-86
2023/11/27 06:47:36;;;;;;;4.78;3.15;;;1.50;99.90;;;;;;4976989;28;20125;-86
2023/11/27 06:50:01;;;;;;;4.68;3.45;;;1.60;99.90;;;;;;4978212;28;21040;-86
2023/11/27 06:52:27;;;;;;;3.40;3.10;;;1.60;99.90;;;;;;4992219;28;20034;-86
2023/11/27 06:55:24;;;;;;;5.80;2.85;;;1.60;99.90;;;;;;4978568;28;20092;-86
2023/11/27 06:57:50;;;;;;;6.35;2.90;;;1.60;99.90;;;;;;4989674;28;20418;-86
2023/11/27 07:00:17;;;;;;;5.50;3.17;;;1.60;99.90;;;;;;4973234;28;20025;-86
2023/11/27 07:02:42;;;;;;;6.30;3.53;;;1.60;99.90;;;;;;4970858;28;20034;-86
2023/11/27 07:05:09;;;;;;;6.55;3.63;;;1.60;99.90;;;;;;4993741;28;20121;-86
2023/11/27 07:07:35;;;;;;;5.95;3.35;;;1.60;99.90;;;;;;4987064;28;20037;-86
2023/11/27 07:10:02;;;;;;;4.97;3.92;;;1.60;99.90;;;;;;5004343;28;20104;-86
2023/11/27 07:12:28;;;;;;;6.82;4.00;;;1.60;99.90;;;;;;4995787;28;20062;-86
2023/11/27 07:14:53;;;;;;;5.90;3.80;;;1.60;99.90;;;;;;4982934;28;20064;-86
2023/11/27 07:17:20;;;;;;;5.90;3.90;;;1.60;99.90;;;;;;4995088;28;20025;-86
2023/11/27 07:19:46;;;;;;;4.60;3.00;;;1.60;99.90;;;;;;4993483;28;20036;-86
2023/11/27 07:22:12;;;;;;;6.25;3.92;;;1.60;99.90;;;;;;4991633;28;20228;-86
2023/11/27 07:24:37;;;;;;;6.80;4.30;;;1.60;99.90;;;;;;4989688;28;20028;-86
2023/11/27 07:27:04;;;;;;;5.90;3.97;;;1.60;99.90;;;;;;4975689;28;20022;-87
2023/11/27 07:29:30;;;;;;;7.38;3.78;;;1.60;99.90;;;;;;4990103;28;20400;-86
2023/11/27 07:31:55;;;;;;;7.82;4.30;;;1.60;99.90;;;;;;4985947;28;20117;-87
2023/11/27 07:34:26;;;;;;;5.70;3.92;;;1.60;99.90;;;;;;4984677;28;20099;-86
2023/11/27 07:36:52;;;;;;;6.47;4.00;;;1.60;99.90;;;;;;5004172;28;20080;-85
2023/11/27 07:39:18;;;;;;;6.63;3.70;;;1.60;99.90;;;;;;4992050;28;20025;-86
2023/11/27 07:41:45;;;;;;;6.03;4.10;;;1.60;99.90;;;;;;4981508;28;20191;-87
2023/11/27 07:44:12;;;;;;;6.82;4.05;;;1.60;99.90;;;;;;5016330;23;20056;-59
2023/11/27 07:46:38;;;;;;;7.93;4.60;;;1.50;99.90;;;;;;4929760;28;20456;-58
2023/11/27 07:49:04;;;;;;;6.45;3.78;;;1.50;99.90;;;;;;4932579;28;20125;-61
2023/11/27 07:51:30;;;;;;;5.60;3.63;;;1.50;99.90;;;;;;4974603;28;20064;-60
2023/11/27 07:53:56;;;;;;;4.70;3.45;;;1.50;99.90;;;;;;4912843;28;21445;-60
2023/11/27 07:56:29;;;;;;;6.20;3.88;;;1.50;99.90;;;;;;4945853;28;20044;-59
2023/11/27 07:58:57;;;;;;;6.47;3.40;;;1.50;99.90;;;;;;4920676;28;20030;-59
2023/11/27 08:01:24;;;;;;;5.07;3.80;;;1.50;99.90;;;;;;4905354;28;22245;-59
2023/11/27 08:03:50;;;;;;;5.85;3.30;;;1.50;99.90;;;;;;4987563;28;20018;-61
2023/11/27 08:06:16;;;;;;;5.20;3.20;;;1.40;99.90;;;;;;5003044;28;20044;-61
2023/11/27 08:08:42;;;;;;;7.40;4.18;;;1.50;99.90;;;;;;4966878;28;20038;-61
2023/11/27 08:11:09;;;;;;;4.85;3.20;;;1.40;99.90;;;;;;4994053;28;20100;-59
2023/11/27 08:13:42;;;;;;;4.85;2.83;;;1.40;99.90;;;;;;4979320;28;20586;-59
2023/11/27 08:16:08;;;;;;;5.72;3.17;;;1.40;99.90;;;;;;4982628;28;20026;-60
2023/11/27 08:18:34;;;;;;;4.00;2.67;;;1.40;99.90;;;;;;4967084;28;20351;-59
2023/11/27 08:21:05;;;;;;;5.22;2.83;;;1.40;99.90;;;;;;4979832;28;20384;-57
2023/11/27 08:23:31;;;;;;;3.92;3.22;;;1.40;99.90;;;;;;4965337;28;20022;-57
2023/11/27 08:25:56;;;;;;;4.28;3.30;;;1.40;99.90;;;;;;4961667;28;20053;-58
2023/11/27 08:28:22;;;;;;;3.25;2.75;;;1.40;99.90;;;;;;4961201;28;20057;-60
2023/11/27 08:30:48;;;;;;;4.57;3.03;;;1.40;99.90;;;;;;4961912;28;20026;-61
2023/11/27 08:33:14;;;;;;;4.75;2.92;;;1.30;99.90;;;;;;4955411;28;20112;-58
2023/11/27 08:35:40;;;;;;;3.00;2.45;;;1.30;99.90;;;;;;4960844;28;20041;-61
2023/11/27 08:38:06;;;;;;;5.45;2.80;;;1.40;99.90;;;;;;4991295;28;20033;-58
2023/11/27 08:40:32;;;;;;;4.85;2.67;;;1.40;99.90;;;;;;4977931;28;20023;-58
2023/11/27 08:43:00;;;;;;;4.28;2.53;;;1.30;99.90;;;;;;4968030;28;20104;-59
2023/11/27 08:45:25;;;;;;;2.72;2.20;;;1.30;99.90;;;;;;4947654;28;20021;-57
2023/11/27 08:47:51;;;;;;;4.72;2.75;;;1.40;99.90;;;;;;4963797;28;20034;-59
2023/11/27 08:50:18;;;;;;;4.07;2.90;;;1.40;99.90;;;;;;4991381;28;20053;-59
2023/11/27 08:52:45;;;;;;;5.07;2.60;;;1.30;99.90;;;;;;4981792;28;20038;-57
2023/11/27 08:55:10;;;;;;;4.80;2.85;;;1.30;99.90;;;;;;4958674;28;20030;-59
2023/11/27 08:57:36;;;;;;;3.25;2.47;;;1.30;99.90;;;;;;4942626;28;20108;-60
2023/11/27 09:00:12;;;;;;;4.28;3.05;;;1.30;99.90;;;;;;4941010;28;20025;-61
2023/11/27 09:02:38;;;;;;;3.30;2.28;;;1.30;99.90;;;;;;4984592;28;20045;-61
2023/11/27 09:05:07;;;;;;;3.72;2.58;;;1.30;99.90;;;;;;4962859;28;20033;-59
2023/11/27 09:07:33;;;;;;;3.88;2.42;;;1.30;99.90;;;;;;4981642;28;20048;-59
2023/11/27 09:09:59;;;;;;;4.82;2.60;;;1.30;99.90;;;;;;4952125;28;20038;-57
2023/11/27 09:12:25;;;;;;;4.57;2.35;;;1.30;99.90;;;;;;4971228;28;20033;-58
2023/11/27 09:14:51;;;;;;;4.93;2.60;;;1.30;99.90;;;;;;4940308;28;20052;-59
2023/11/27 09:17:17;;;;;;;7.22;3.10;;;1.30;99.90;;;;;;4990470;28;20800;-58
2023/11/27 09:19:44;;;;;;;4.25;2.47;;;1.30;99.90;;;;;;4959058;28;20029;-59
2023/11/27 09:22:09;;;;;;;3.72;2.40;;;1.30;99.90;;;;;;4926788;28;20076;-59
2023/11/27 09:24:38;;;;;;;2.78;2.47;;;1.30;99.90;;;;;;4939606;28;20113;-59
2023/11/27 09:27:04;;;;;;;4.13;2.53;;;1.30;99.90;;;;;;4967626;28;20026;-59
2023/11/27 09:29:30;;;;;;;3.70;2.38;;;1.30;99.90;;;;;;4986472;28;20197;-57
2023/11/27 09:31:56;;;;;;;3.03;2.17;;;1.30;99.90;;;;;;4951293;28;20017;-60
2023/11/27 09:34:21;;;;;;;3.40;2.60;;;1.20;99.90;;;;;;4950118;28;20575;-57
2023/11/27 09:36:47;;;;;;;3.70;2.65;;;1.20;99.90;;;;;;4966621;28;20398;-59
2023/11/27 09:39:13;;;;;;;3.90;2.25;;;1.20;99.90;;;;;;4935088;28;20045;-56
2023/11/27 09:41:39;;;;;;;2.97;2.30;;;1.20;99.90;;;;;;4954180;28;20036;-59
2023/11/27 09:44:04;;;;;;;4.80;2.22;;;1.20;99.90;;;;;;4948406;28;20386;-59
2023/11/27 09:46:31;;;;;;;6.97;2.97;;;1.20;99.90;;;;;;4970100;28;20034;-53
2023/11/27 09:49:02;;;;;;;4.15;2.50;;;1.20;99.90;;;;;;4930589;28;20025;-56
2023/11/27 09:51:32;;;;;;;5.40;2.72;;;1.20;99.90;;;;;;4971640;28;20041;-55
2023/11/27 09:54:00;;;;;;;3.17;2.78;;;1.20;99.90;;;;;;4925216;28;21795;-55
2023/11/27 09:56:28;;;;;;;4.53;2.53;;;1.20;99.90;;;;;;4961091;28;20042;-59
2023/11/27 09:58:59;;;;;;;3.58;2.67;;;1.20;99.90;;;;;;4932450;28;20669;-61
2023/11/27 10:01:27;;;;;;;3.55;2.33;;;1.20;99.90;;;;;;4949859;28;20466;-57
2023/11/27 10:03:58;;;;;;;4.15;2.72;;;1.20;99.90;;;;;;4904559;28;20040;-57
2023/11/27 10:06:33;;;;;;;3.30;2.42;;;1.10;99.90;;;;;;4896526;28;20124;-57
2023/11/27 10:09:07;;;;;;;3.90;2.50;;;1.10;99.90;;;;;;4922883;28;20656;-57
2023/11/27 10:11:34;;;;;;;3.97;2.83;;;1.10;99.90;;;;;;4959109;28;20061;-55
2023/11/27 10:14:08;;;;;;;5.57;2.60;;;1.00;99.90;;;;;;4927111;28;20030;-59
2023/11/27 10:16:38;;;;;;;3.92;2.35;;;1.10;99.90;;;;;;4933275;28;20041;-57
2023/11/27 10:19:06;;;;;;;5.43;3.58;;;1.00;99.90;;;;;;4922606;28;20405;-58
2023/11/27 10:21:33;;;;;;;4.20;2.97;;;1.00;99.90;;;;;;4907599;28;20621;-57
2023/11/27 10:24:08;;;;;;;3.40;2.90;;;1.00;99.90;;;;;;4909113;28;22007;-56
2023/11/27 10:26:37;;;;;;;5.50;3.47;;;1.00;99.90;;;;;;4962643;28;20025;-60
2023/11/27 10:29:03;;;;;;;3.75;2.90;;;1.10;99.90;;;;;;4907588;28;20522;-59
2023/11/27 10:31:30;;;;;;;7.10;4.38;;;1.00;99.90;;;;;;4956865;28;20025;-60
2023/11/27 10:33:56;;;;;;;4.55;3.30;;;1.00;99.90;;;;;;4900392;28;20037;-58
2023/11/27 10:36:25;;;;;;;6.97;4.68;;;1.00;99.90;;;;;;4880146;28;20038;-59
2023/11/27 10:39:14;;;;;;;4.70;3.10;;;1.00;99.90;;;;;;4897045;28;20029;-57
2023/11/27 10:41:50;;;;;;;5.25;3.42;;;1.00;99.90;;;;;;4934868;28;20018;-61
2023/11/27 10:44:16;;;;;;;5.70;3.97;;;1.00;99.90;;;;;;4942615;28;21555;-59
2023/11/27 10:46:42;;;;;;;5.45;3.60;;;1.00;99.90;;;;;;4951405;28;20470;-58
2023/11/27 10:49:09;;;;;;;5.03;3.42;;;1.00;99.90;;;;;;4891750;28;20478;-58
2023/11/27 10:51:36;;;;;;;5.28;3.55;;;1.00;99.90;;;;;;4889977;28;20092;-58
2023/11/27 10:54:03;;;;;;;4.35;3.22;;;1.00;99.90;;;;;;4892711;28;20030;-59
2023/11/27 10:56:33;;;;;;;7.00;3.70;;;1.00;99.90;;;;;;4955995;28;20026;-60
2023/11/27 10:59:05;;;;;;;5.05;3.15;;;1.10;99.90;;;;;;4912426;28;20022;-62
2023/11/27 11:01:58;;;;;;;6.18;3.40;;;1.00;99.90;;;;;;4938373;28;20022;-60
2023/11/27 11:04:30;;;;;;;5.18;3.13;;;1.00;99.90;;;;;;4916207;28;20034;-58
2023/11/27 11:07:06;;;;;;;5.78;3.67;;;1.00;99.90;;;;;;4879894;28;20099;-58
2023/11/27 11:09:35;;;;;;;6.10;3.22;;;1.00;99.90;;;;;;4896173;28;20137;-58
2023/11/27 11:12:04;;;;;;;4.40;3.33;;;1.00;99.90;;;;;;4888587;28;21323;-59
2023/11/27 11:14:31;;;;;;;5.57;3.10;;;1.00;99.90;;;;;;4930124;28;20048;-59
2023/11/27 11:17:17;;;;;;;7.15;3.25;;;1.10;99.90;;;;;;4936141;28;20050;-57
2023/11/27 11:20:28;;;;;;;3.70;2.85;;;1.10;99.90;;;;;;4987249;28;20025;-58
2023/11/27 11:23:09;;;;;;;4.43;2.90;;;1.10;99.90;;;;;;4980725;28;20053;-60
2023/11/27 11:25:48;;;;;;;3.58;2.95;;;1.10;99.90;;;;;;4987360;28;20029;-58
2023/11/27 11:28:25;;;;;;;5.18;3.67;;;1.10;99.90;;;;;;4924089;28;20247;-57
2023/11/27 11:31:16;;;;;;;5.22;3.50;;;1.10;99.90;;;;;;4923108;28;20029;-58
2023/11/27 11:33:43;;;;;;;5.72;3.10;;;1.20;99.90;;;;;;4931426;28;20494;-56
2023/11/27 11:36:14;;;;;;;5.45;3.47;;;1.20;99.90;;;;;;4948559;28;20025;-56
2023/11/27 11:38:48;;;;;;;4.32;3.15;;;1.20;99.90;;;;;;4933155;28;20161;-57
2023/11/27 11:41:17;;;;;;;5.93;3.63;;;1.20;99.90;;;;;;4932492;28;21576;-58
2023/11/27 11:43:46;;;;;;;7.63;3.33;;;1.20;99.90;;;;;;4984012;28;20109;-58
2023/11/27 11:46:17;;;;;;;4.75;3.47;;;1.20;99.90;;;;;;4917810;28;20037;-57
2023/11/27 11:48:43;;;;;;;8.35;3.55;;;1.20;99.90;;;;;;4919097;28;20139;-56
2023/11/27 11:51:15;;;;;;;5.38;3.22;;;1.20;99.90;;;;;;4947622;28;20034;-58
2023/11/27 11:53:42;;;;;;;4.18;3.38;;;1.20;99.90;;;;;;4920029;28;20030;-58
2023/11/27 11:56:19;;;;;;;5.32;3.13;;;1.20;99.90;;;;;;4918739;28;20489;-59
2023/11/27 11:58:46;;;;;;;4.88;3.08;;;1.30;99.90;;;;;;4975882;28;20029;-57
2023/11/27 12:01:14;;;;;;;6.38;3.95;;;1.30;99.90;;;;;;4909295;28;20021;-58
2023/11/27 12:03:45;;;;;;;5.90;3.38;;;1.30;99.90;;;;;;4964512;28;20107;-57
2023/11/27 12:06:14;;;;;;;3.92;3.53;;;1.30;99.90;;;;;;4991059;28;21763;-58
2023/11/27 12:08:45;;;;;;;5.15;3.55;;;1.30;99.90;;;;;;4981131;28;20048;-58
2023/11/27 12:11:13;;;;;;;4.90;3.25;;;1.30;99.90;;;;;;4940607;28;20037;-57
2023/11/27 12:13:43;;;;;;;4.75;3.25;;;1.30;99.90;;;;;;4958399;28;20033;-57
2023/11/27 12:16:12;;;;;;;4.82;3.13;;;1.30;99.90;;;;;;4966258;28;20455;-58
2023/11/27 12:18:49;;;;;;;6.45;3.88;;;1.40;99.90;;;;;;4958940;28;20136;-59
2023/11/27 12:21:20;;;;;;;5.43;3.08;;;1.40;99.90;;;;;;4995371;28;21644;-57
2023/11/27 12:23:47;;;;;;;5.57;3.63;;;1.40;99.90;;;;;;4971213;28;20026;-56
2023/11/27 12:26:17;;;;;;;4.68;3.55;;;1.40;99.90;;;;;;4935373;28;20070;-56
2023/11/27 12:28:46;;;;;;;4.97;3.30;;;1.40;99.90;;;;;;4958086;28;20026;-57
2023/11/27 12:31:14;;;;;;;6.03;3.50;;;1.40;99.90;;;;;;4957173;28;20033;-58
2023/11/27 12:33:40;;;;;;;5.65;3.75;;;1.40;99.90;;;;;;4949723;28;20447;-59
2023/11/27 12:36:07;;;;;;;8.35;4.10;;;1.40;99.90;;;;;;4966547;28;20026;-57
2023/11/27 12:38:35;;;;;;;5.18;3.88;;;1.40;99.90;;;;;;4971054;28;20029;-57
2023/11/27 12:41:16;;;;;;;6.93;4.20;;;1.40;99.90;;;;;;4952450;28;20033;-58
2023/11/27 12:43:42;;;;;;;7.70;4.82;;;1.40;99.90;;;;;;4949088;28;20024;-57
2023/11/27 12:46:13;;;;;;;4.43;3.80;;;1.40;99.90;;;;;;4953311;28;20441;-56
2023/11/27 12:48:47;;;;;;;6.68;3.90;;;1.40;99.90;;;;;;4966620;28;20037;-60
2023/11/27 12:51:18;;;;;;;10.50;5.60;;;1.30;99.90;;;;;;4988621;28;20030;-58